createdAt,value
2019-06-07T00:01:21.144Z,65.98
2019-06-07T00:03:50.926Z,65.93
2019-06-07T00:06:25.021Z,65.99
2019-06-07T00:08:52.062Z,66.27
2019-06-07T00:11:21.745Z,66.15
2019-06-07T00:13:51.510Z,66.02
2019-06-07T00:16:23.210Z,65.98
2019-06-07T00:18:52.516Z,66.36
2019-06-07T00:22:11.706Z,66.85
2019-06-07T00:23:53.790Z,67.06
2019-06-07T00:26:23.459Z,67.42
2019-06-07T00:28:53.311Z,67.31
2019-06-07T00:31:24.747Z,67.20
2019-06-07T00:33:56.203Z,67.12
2019-06-07T00:36:26.116Z,67.21
2019-06-07T00:38:55.829Z,67.22
2019-06-07T00:41:25.490Z,67.11
2019-06-07T00:43:55.286Z,67.21
2019-06-07T00:46:25.449Z,67.56
2019-06-07T00:48:55.178Z,67.53
2019-06-07T00:51:24.878Z,67.46
2019-06-07T00:53:54.717Z,67.71
2019-06-07T00:56:24.689Z,68.01
2019-06-07T00:59:10.866Z,68.28
2019-06-07T01:01:26.140Z,68.50
2019-06-07T01:03:55.954Z,68.36
2019-06-07T01:06:25.798Z,68.30
2019-06-07T01:08:55.494Z,68.00
2019-06-07T01:11:26.058Z,68.27
2019-06-07T01:13:56.008Z,68.07
2019-06-07T01:16:26.415Z,68.17
2019-06-07T01:18:56.335Z,68.39
2019-06-07T01:21:29.490Z,68.31
2019-06-07T01:24:11.489Z,68.17
2019-06-07T01:26:30.378Z,68.32
2019-06-07T01:29:00.392Z,68.56
2019-06-07T01:31:31.542Z,68.45
2019-06-07T01:34:01.461Z,68.62
2019-06-07T01:36:31.330Z,68.61
2019-06-07T01:39:01.511Z,68.36
2019-06-07T01:41:31.297Z,68.37
2019-06-07T01:44:01.531Z,68.64
2019-06-07T01:46:31.352Z,68.66
2019-06-07T01:49:01.481Z,68.72
2019-06-07T01:51:31.371Z,68.58
2019-06-07T01:54:48.599Z,68.66
2019-06-07T01:56:32.683Z,68.61
2019-06-07T01:59:02.370Z,68.68
2019-06-07T02:01:35.294Z,68.62
2019-06-07T02:04:03.802Z,68.53
2019-06-07T02:06:33.570Z,68.74
2019-06-07T02:09:03.380Z,68.84
2019-06-07T02:11:33.668Z,69.09
2019-06-07T02:14:04.749Z,69.34
2019-06-07T02:16:34.425Z,69.48
2019-06-07T02:19:04.253Z,69.61
2019-06-07T02:21:34.571Z,69.79
2019-06-07T02:24:04.585Z,69.89
2019-06-07T02:26:34.358Z,69.87
2019-06-07T02:29:04.200Z,69.69
2019-06-07T02:31:39.268Z,69.99
2019-06-07T02:34:05.343Z,70.25
2019-06-07T02:36:40.950Z,70.31
2019-06-07T02:39:08.449Z,70.39
2019-06-07T02:41:39.852Z,70.22
2019-06-07T02:44:09.804Z,71.33
2019-06-07T02:46:46.732Z,72.27
2019-06-07T02:49:11.004Z,72.41
2019-06-07T02:51:41.959Z,72.10
2019-06-07T02:54:11.879Z,72.28
2019-06-07T02:56:56.828Z,72.14
2019-06-07T02:59:13.137Z,72.15
2019-06-07T03:01:43.314Z,72.34
2019-06-07T03:04:14.438Z,72.22
2019-06-07T03:06:45.668Z,72.07
2019-06-07T03:09:16.710Z,71.46
2019-06-07T03:11:50.370Z,70.98
2019-06-07T03:14:22.553Z,70.93
2019-06-07T03:16:56.298Z,70.88
2019-06-07T03:19:31.353Z,70.79
2019-06-07T03:22:04.623Z,70.77
2019-06-07T03:24:39.229Z,70.46
2019-06-07T03:27:34.114Z,70.19
2019-06-07T03:29:41.179Z,69.96
2019-06-07T03:32:10.698Z,69.83
2019-06-07T03:34:43.474Z,69.58
2019-06-07T03:37:11.860Z,69.34
2019-06-07T03:39:41.647Z,69.07
2019-06-07T03:42:11.329Z,69.13
2019-06-07T03:44:41.649Z,69.07
2019-06-07T03:47:11.475Z,68.76
2019-06-07T03:49:42.597Z,68.65
2019-06-07T03:52:12.563Z,68.64
2019-06-07T03:54:42.248Z,68.65
2019-06-07T03:57:11.912Z,68.51
2019-06-07T03:59:41.739Z,68.52
2019-06-07T04:02:11.484Z,68.56
2019-06-07T04:04:41.289Z,68.42
2019-06-07T04:07:11.064Z,68.23
2019-06-07T04:09:43.029Z,67.80
2019-06-07T04:12:12.152Z,67.22
2019-06-07T04:14:42.846Z,67.78
2019-06-07T04:17:12.752Z,67.67
2019-06-07T04:19:43.591Z,67.44
2019-06-07T04:22:13.602Z,66.71
2019-06-07T04:24:43.461Z,66.52
2019-06-07T04:27:13.189Z,66.24
2019-06-07T04:30:05.734Z,66.14
2019-06-07T04:32:14.552Z,65.70
2019-06-07T04:34:44.313Z,65.62
2019-06-07T04:37:15.269Z,65.49
2019-06-07T04:39:46.374Z,65.35
2019-06-07T04:42:20.034Z,65.13
2019-06-07T04:44:51.595Z,64.89
2019-06-07T04:47:21.328Z,64.34
2019-06-07T04:49:53.479Z,63.79
2019-06-07T04:52:23.335Z,63.19
2019-06-07T04:54:53.068Z,62.21
2019-06-07T04:57:22.842Z,62.37
2019-06-07T05:02:23.965Z,62.01
2019-06-07T05:04:53.654Z,62.04
2019-06-07T05:07:23.474Z,61.70
2019-06-07T05:09:53.221Z,61.77
2019-06-07T05:12:22.941Z,61.89
2019-06-07T05:14:52.614Z,61.95
2019-06-07T05:17:22.294Z,62.25
2019-06-07T05:19:51.950Z,62.43
2019-06-07T05:22:22.078Z,62.33
2019-06-07T05:24:51.772Z,61.87
2019-06-07T05:27:21.624Z,61.89
2019-06-07T05:30:09.081Z,61.31
2019-06-07T05:32:22.837Z,60.54
2019-06-07T05:34:52.512Z,60.36
2019-06-07T05:37:22.278Z,59.49
2019-06-07T05:39:51.993Z,59.12
2019-06-07T05:42:21.845Z,58.84
2019-06-07T05:44:51.903Z,58.25
2019-06-07T05:47:21.555Z,58.27
2019-06-07T05:49:51.339Z,58.31
2019-06-07T05:52:21.280Z,58.76
2019-06-07T05:54:51.058Z,58.80
2019-06-07T05:57:20.752Z,58.10
2019-06-07T05:59:50.575Z,58.29
2019-06-07T06:02:25.057Z,57.96
2019-06-07T06:04:51.978Z,57.49
2019-06-07T06:07:22.027Z,58.67
2019-06-07T06:09:51.727Z,58.27
2019-06-07T06:12:34.795Z,58.51
2019-06-07T06:14:52.867Z,58.01
2019-06-07T06:17:22.563Z,57.67
2019-06-07T06:19:53.354Z,57.50
2019-06-07T06:22:23.324Z,56.45
2019-06-07T06:25:30.135Z,57.02
2019-06-07T06:29:55.911Z,55.90
2019-06-07T06:32:47.135Z,54.60
2019-06-07T06:34:57.146Z,54.56
2019-06-07T06:37:26.933Z,54.37
2019-06-07T06:39:56.632Z,53.29
2019-06-07T06:42:26.352Z,53.08
2019-06-07T06:44:56.069Z,52.66
2019-06-07T06:47:25.909Z,52.04
2019-06-07T06:49:55.674Z,52.20
2019-06-07T06:52:25.349Z,52.51
2019-06-07T06:55:00.608Z,52.33
2019-06-07T06:57:27.829Z,52.53
2019-06-07T06:59:57.678Z,52.44
2019-06-07T07:02:27.530Z,51.42
2019-06-07T07:04:57.228Z,50.96
2019-06-07T07:07:28.214Z,50.85
2019-06-07T07:10:00.051Z,51.03
2019-06-07T07:12:29.931Z,50.85
2019-06-07T07:14:59.612Z,50.93
2019-06-07T07:17:47.584Z,50.58
2019-06-07T07:20:00.682Z,50.56
2019-06-07T07:22:30.422Z,50.55
2019-06-07T07:25:00.200Z,50.18
2019-06-07T07:27:29.931Z,49.98
2019-06-07T07:30:34.921Z,49.79
2019-06-07T07:32:31.179Z,50.25
2019-06-07T07:35:01.026Z,50.71
2019-06-07T07:37:30.806Z,51.24
2019-06-07T07:40:09.586Z,50.35
2019-06-07T07:42:31.882Z,50.76
2019-06-07T07:45:01.534Z,50.83
2019-06-07T07:47:31.216Z,51.38
2019-06-07T07:50:00.955Z,50.79
2019-06-07T07:52:30.622Z,50.92
2019-06-07T07:55:00.390Z,50.56
2019-06-07T07:57:30.047Z,49.76
2019-06-07T08:00:36.190Z,49.58
2019-06-07T08:02:31.761Z,49.38
2019-06-07T08:05:25.647Z,49.59
2019-06-07T08:07:32.950Z,50.36
2019-06-07T08:10:04.116Z,50.50
2019-06-07T08:12:55.842Z,49.84
2019-06-07T08:15:07.374Z,50.42
2019-06-07T08:17:37.376Z,49.58
2019-06-07T08:20:09.265Z,49.65
2019-06-07T08:22:39.261Z,49.13
2019-06-07T08:25:10.091Z,49.32
2019-06-07T08:27:39.939Z,48.60
2019-06-07T08:30:47.299Z,48.70
2019-06-07T08:32:45.065Z,48.64
2019-06-07T08:36:02.358Z,49.40
2019-06-07T08:40:20.310Z,48.05
2019-06-07T08:43:11.323Z,48.49
2019-06-07T08:45:22.263Z,47.20
2019-06-07T08:47:58.036Z,48.61
2019-06-07T08:50:25.536Z,47.86
2019-06-07T08:53:02.863Z,47.86
2019-06-07T08:55:26.853Z,48.19
2019-06-07T08:58:02.246Z,48.67
2019-06-07T09:00:45.373Z,48.16
2019-06-07T09:03:06.497Z,48.17
2019-06-07T09:05:31.815Z,48.17
2019-06-07T09:08:23.641Z,47.42
2019-06-07T09:10:33.698Z,47.24
2019-06-07T09:13:10.248Z,47.44
2019-06-07T09:15:34.994Z,47.15
2019-06-07T09:20:47.810Z,48.12
2019-06-07T09:23:18.072Z,47.65
2019-06-07T09:25:57.542Z,48.36
2019-06-07T09:28:21.596Z,48.04
2019-06-07T09:30:51.406Z,48.64
2019-06-07T09:33:21.105Z,48.14
2019-06-07T09:35:51.054Z,48.11
2019-06-07T09:38:26.280Z,47.81
2019-06-07T09:40:52.199Z,48.18
2019-06-07T09:45:53.408Z,48.54
2019-06-07T09:49:09.089Z,48.29
2019-06-07T09:50:54.549Z,48.33
2019-06-07T09:53:24.411Z,47.86
2019-06-07T09:55:54.109Z,47.25
2019-06-07T09:58:50.955Z,48.02
2019-06-07T10:00:55.367Z,48.04
2019-06-07T10:03:25.203Z,47.78
2019-06-07T10:05:55.042Z,47.82
2019-06-07T10:09:42.613Z,48.28
2019-06-07T10:10:56.238Z,47.65
2019-06-07T10:13:26.009Z,47.74
2019-06-07T10:15:56.025Z,47.56
2019-06-07T10:18:25.689Z,48.15
2019-06-07T10:20:55.407Z,46.87
2019-06-07T10:23:25.135Z,47.25
2019-06-07T10:25:54.877Z,46.48
2019-06-07T10:28:24.629Z,48.26
2019-06-07T10:30:54.290Z,48.76
2019-06-07T10:33:24.137Z,48.94
2019-06-07T10:35:53.797Z,47.06
2019-06-07T10:38:23.483Z,46.68
2019-06-07T10:40:53.277Z,46.34
2019-06-07T10:43:23.096Z,46.49
2019-06-07T10:45:52.777Z,47.14
2019-06-07T10:48:25.017Z,47.28
2019-06-07T10:50:53.954Z,47.13
2019-06-07T10:53:23.706Z,46.46
2019-06-07T10:55:53.352Z,46.57
2019-06-07T10:58:23.224Z,46.96
2019-06-07T11:00:53.135Z,47.09
2019-06-07T11:03:23.240Z,47.10
2019-06-07T11:05:52.977Z,46.91
2019-06-07T11:08:22.836Z,45.92
2019-06-07T11:10:52.570Z,46.55
2019-06-07T11:13:22.320Z,47.06
2019-06-07T11:15:52.009Z,46.88
2019-06-07T11:18:21.789Z,46.69
2019-06-07T11:20:51.432Z,46.83
2019-06-07T11:23:21.173Z,46.85
2019-06-07T11:25:50.860Z,47.69
2019-06-07T11:28:20.621Z,47.64
2019-06-07T11:30:50.393Z,46.45
2019-06-07T11:33:20.061Z,47.33
2019-06-07T11:35:49.879Z,47.17
2019-06-07T11:38:19.604Z,46.72
2019-06-07T11:41:07.604Z,46.46
2019-06-07T11:43:37.357Z,45.99
2019-06-07T11:46:07.096Z,46.27
2019-06-07T11:48:36.841Z,45.75
2019-06-07T11:51:06.836Z,47.03
2019-06-07T11:53:36.597Z,46.01
2019-06-07T11:56:07.761Z,46.17
2019-06-07T11:58:37.723Z,46.63
2019-06-07T12:01:07.646Z,46.93
2019-06-07T12:03:37.798Z,45.67
2019-06-07T12:06:08.318Z,45.60
2019-06-07T12:08:38.479Z,45.15
2019-06-07T12:11:08.179Z,45.56
2019-06-07T12:13:37.828Z,45.47
2019-06-07T12:16:08.912Z,45.16
2019-06-07T12:18:38.851Z,45.30
2019-06-07T12:21:09.559Z,44.26
2019-06-07T12:23:39.389Z,43.92
2019-06-07T12:26:10.241Z,43.52
2019-06-07T12:28:40.032Z,43.52
2019-06-07T12:31:10.820Z,43.88
2019-06-07T12:33:40.571Z,43.93
2019-06-07T12:36:11.419Z,43.68
2019-06-07T12:38:41.188Z,43.23
2019-06-07T12:41:11.943Z,41.21
2019-06-07T12:43:41.882Z,41.75
2019-06-07T12:46:16.242Z,40.28
2019-06-07T12:48:42.947Z,40.10
2019-06-07T12:51:13.165Z,39.23
2019-06-07T12:53:42.977Z,38.43
2019-06-07T12:56:13.523Z,38.63
2019-06-07T12:58:43.306Z,38.56
2019-06-07T13:01:13.858Z,38.81
2019-06-07T13:03:43.696Z,37.33
2019-06-07T13:06:13.455Z,36.77
2019-06-07T13:08:43.164Z,36.29
2019-06-07T13:11:17.629Z,37.19
2019-06-07T13:13:44.313Z,36.54
2019-06-07T13:16:13.984Z,36.81
2019-06-07T13:18:43.809Z,37.21
2019-06-07T13:21:13.491Z,36.41
2019-06-07T13:23:44.454Z,36.45
2019-06-07T13:26:14.380Z,36.92
2019-06-07T13:28:44.162Z,36.81
2019-06-07T13:31:13.822Z,36.46
2019-06-07T13:33:43.665Z,36.38
2019-06-07T13:36:13.438Z,35.29
2019-06-07T13:38:43.777Z,35.20
2019-06-07T13:41:13.448Z,35.75
2019-06-07T13:43:43.132Z,35.85
2019-06-07T13:46:13.216Z,35.73
2019-06-07T13:48:42.980Z,34.81
2019-06-07T13:51:12.708Z,34.72
2019-06-07T13:53:42.482Z,35.03
2019-06-07T13:56:12.317Z,34.63
2019-06-07T13:58:41.989Z,34.91
2019-06-07T14:01:11.766Z,34.23
2019-06-07T14:03:41.450Z,34.68
2019-06-07T14:06:11.149Z,35.77
2019-06-07T14:08:40.821Z,36.41
2019-06-07T14:11:10.615Z,36.39
2019-06-07T14:13:40.411Z,36.99
2019-06-07T14:16:10.192Z,37.42
2019-06-07T14:18:39.877Z,37.97
2019-06-07T14:21:09.551Z,37.95
2019-06-07T14:23:48.825Z,38.08
2019-06-07T14:26:10.713Z,38.47
2019-06-07T14:28:40.566Z,38.67
2019-06-07T14:31:10.269Z,38.96
2019-06-07T14:33:40.073Z,38.95
2019-06-07T14:36:10.149Z,39.34
2019-06-07T14:38:40.076Z,39.65
2019-06-07T14:41:09.832Z,40.18
2019-06-07T14:43:39.600Z,40.18
2019-06-07T14:46:09.580Z,40.21
2019-06-07T14:48:39.235Z,40.00
2019-06-07T14:51:09.004Z,39.43
2019-06-07T14:53:38.717Z,38.67
2019-06-07T14:56:08.547Z,37.73
2019-06-07T14:58:43.250Z,37.22
2019-06-07T15:01:09.711Z,37.72
2019-06-07T15:03:39.386Z,36.82
2019-06-07T15:06:09.165Z,36.16
2019-06-07T15:08:39.207Z,35.91
2019-06-07T15:11:09.069Z,36.47
2019-06-07T15:13:39.898Z,36.34
2019-06-07T15:16:09.677Z,36.81
2019-06-07T15:18:39.356Z,37.68
2019-06-07T15:21:09.072Z,39.69
2019-06-07T15:23:39.352Z,42.17
2019-06-07T15:26:09.082Z,44.49
2019-06-07T15:28:38.787Z,48.77
2019-06-07T15:31:08.621Z,52.31
2019-06-07T15:33:38.469Z,56.09
2019-06-07T15:36:08.312Z,58.73
2019-06-07T15:38:39.250Z,59.91
2019-06-07T15:41:09.360Z,62.41
2019-06-07T15:43:39.394Z,61.90
2019-06-07T15:46:09.384Z,62.93
2019-06-07T15:48:40.199Z,61.99
2019-06-07T15:51:10.090Z,63.89
2019-06-07T15:53:44.399Z,64.61
2019-06-07T15:56:11.386Z,64.96
2019-06-07T15:58:41.398Z,64.68
2019-06-07T16:01:11.271Z,66.64
2019-06-07T16:03:42.101Z,67.20
2019-06-07T16:06:12.021Z,68.25
2019-06-07T16:08:42.619Z,68.72
2019-06-07T16:11:12.422Z,69.59
2019-06-07T16:13:42.872Z,69.88
2019-06-07T16:16:12.862Z,71.28
2019-06-07T16:18:44.201Z,71.37
2019-06-07T16:21:14.160Z,72.80
2019-06-07T16:23:44.181Z,70.78
2019-06-07T16:26:14.033Z,68.86
2019-06-07T16:28:44.654Z,68.92
2019-06-07T16:31:14.443Z,67.77
2019-06-07T16:33:45.198Z,64.12
2019-06-07T16:36:15.003Z,64.80
2019-06-07T16:38:44.875Z,63.58
2019-06-07T16:41:14.517Z,63.86
2019-06-07T16:43:44.751Z,63.28
2019-06-07T16:46:14.742Z,63.08
2019-06-07T16:48:45.041Z,62.54
2019-06-07T16:51:14.932Z,62.00
2019-06-07T16:53:44.661Z,62.79
2019-06-07T16:56:14.407Z,63.38
2019-06-07T16:58:44.457Z,62.29
2019-06-07T17:01:14.276Z,60.88
2019-06-07T17:03:45.564Z,60.88
2019-06-07T17:06:15.569Z,60.31
2019-06-07T17:08:46.300Z,59.55
2019-06-07T17:11:16.076Z,59.01
2019-06-07T17:13:46.491Z,56.66
2019-06-07T17:16:16.275Z,56.82
2019-06-07T17:18:47.110Z,56.71
2019-06-07T17:21:16.916Z,56.29
2019-06-07T17:23:47.427Z,56.63
2019-06-07T17:26:17.339Z,56.21
2019-06-07T17:28:47.763Z,55.09
2019-06-07T17:31:17.662Z,55.22
2019-06-07T17:33:48.103Z,54.44
2019-06-07T17:36:17.996Z,55.03
2019-06-07T17:38:48.664Z,55.22
2019-06-07T17:41:18.408Z,54.65
2019-06-07T17:43:56.154Z,54.03
2019-06-07T17:46:19.841Z,54.12
2019-06-07T17:48:49.798Z,53.43
2019-06-07T17:51:19.594Z,53.41
2019-06-07T17:53:49.985Z,52.70
2019-06-07T17:56:19.854Z,53.16
2019-06-07T17:58:50.525Z,53.10
2019-06-07T18:01:20.424Z,53.38
2019-06-07T18:03:51.294Z,53.92
2019-06-07T18:06:22.850Z,54.00
2019-06-07T18:08:54.812Z,54.42
2019-06-07T18:11:24.508Z,53.96
2019-06-07T18:14:09.677Z,53.63
2019-06-07T18:16:25.623Z,53.89
2019-06-07T18:18:55.273Z,54.28
2019-06-07T18:21:24.925Z,55.73
2019-06-07T18:23:54.975Z,55.85
2019-06-07T18:26:24.803Z,56.06
2019-06-07T18:28:54.741Z,55.15
2019-06-07T18:31:24.518Z,55.15
2019-06-07T18:33:55.085Z,55.33
2019-06-07T18:36:24.936Z,55.10
2019-06-07T18:38:55.102Z,55.83
2019-06-07T18:41:24.919Z,55.99
2019-06-07T18:43:55.369Z,55.62
2019-06-07T18:46:25.162Z,56.33
2019-06-07T18:48:54.861Z,55.87
2019-06-07T18:51:24.618Z,55.21
2019-06-07T18:53:54.365Z,56.19
2019-06-07T18:56:24.292Z,54.82
2019-06-07T18:58:55.319Z,54.70
2019-06-07T19:01:25.079Z,54.69
2019-06-07T19:03:56.084Z,54.54
2019-06-07T19:06:25.986Z,54.31
2019-06-07T19:08:57.950Z,54.34
2019-06-07T19:11:27.264Z,53.68
2019-06-07T19:13:57.185Z,53.68
2019-06-07T19:16:26.979Z,53.69
2019-06-07T19:18:57.794Z,53.07
2019-06-07T19:21:27.896Z,53.17
2019-06-07T19:23:58.065Z,52.65
2019-06-07T19:26:27.866Z,52.25
2019-06-07T19:28:58.777Z,52.51
2019-06-07T19:31:28.759Z,51.75
2019-06-07T19:33:59.401Z,51.54
2019-06-07T19:36:29.191Z,51.11
2019-06-07T19:39:00.015Z,51.09
2019-06-07T19:41:29.845Z,51.28
2019-06-07T19:44:00.385Z,51.30
2019-06-07T19:46:30.150Z,51.46
2019-06-07T19:49:00.755Z,51.65
2019-06-07T19:51:30.781Z,51.32
2019-06-07T19:54:01.755Z,51.56
2019-06-07T19:56:31.608Z,51.15
2019-06-07T19:59:01.831Z,51.28
2019-06-07T20:01:31.637Z,51.37
2019-06-07T20:04:02.405Z,51.21
2019-06-07T20:06:32.659Z,51.04
2019-06-07T20:09:02.979Z,51.08
2019-06-07T20:11:32.864Z,51.04
2019-06-07T20:14:03.054Z,50.77
2019-06-07T20:16:32.809Z,51.07
2019-06-07T20:19:03.974Z,50.66
2019-06-07T20:21:34.205Z,53.19
2019-06-07T20:24:24.074Z,51.32
2019-06-07T20:26:35.411Z,51.00
2019-06-07T20:29:05.725Z,51.23
2019-06-07T20:31:35.626Z,51.35
2019-06-07T20:34:05.787Z,51.48
2019-06-07T20:36:35.752Z,51.78
2019-06-07T20:39:08.351Z,51.78
2019-06-07T20:41:38.045Z,52.03
2019-06-07T20:44:08.133Z,51.72
2019-06-07T20:46:37.924Z,52.01
2019-06-07T20:49:08.407Z,52.06
2019-06-07T20:51:38.404Z,51.74
2019-06-07T20:54:09.142Z,52.30
2019-06-07T20:56:39.049Z,51.85
2019-06-07T20:59:08.967Z,52.26
2019-06-07T21:01:38.687Z,52.23
2019-06-07T21:04:09.216Z,52.59
2019-06-07T21:06:38.993Z,52.39
2019-06-07T21:09:09.708Z,52.65
2019-06-07T21:11:39.567Z,52.95
2019-06-07T21:14:10.285Z,52.70
2019-06-07T21:16:40.043Z,53.29
2019-06-07T21:19:10.454Z,53.46
2019-06-07T21:21:40.169Z,53.42
2019-06-07T21:24:10.930Z,53.52
2019-06-07T21:26:40.770Z,53.64
2019-06-07T21:29:12.003Z,53.63
2019-06-07T21:31:41.851Z,53.94
2019-06-07T21:34:13.993Z,54.33
2019-06-07T21:36:42.938Z,54.22
2019-06-07T21:39:12.686Z,54.38
2019-06-07T21:41:42.330Z,54.21
2019-06-07T21:44:12.418Z,53.95
2019-06-07T21:46:42.320Z,54.30
2019-06-07T21:49:12.818Z,54.18
2019-06-07T21:51:42.669Z,54.18
2019-06-07T21:54:14.741Z,54.53
2019-06-07T21:56:43.811Z,54.48
2019-06-07T21:59:13.575Z,54.61
2019-06-07T22:01:43.490Z,54.36
2019-06-07T22:04:13.708Z,54.42
2019-06-07T22:06:43.500Z,54.47
2019-06-07T22:09:14.697Z,54.88
2019-06-07T22:11:44.483Z,54.66
2019-06-07T22:14:14.551Z,54.38
2019-06-07T22:16:44.229Z,54.80
2019-06-07T22:19:14.944Z,54.46
2019-06-07T22:21:44.750Z,54.41
2019-06-07T22:24:15.145Z,54.49
2019-06-07T22:26:44.884Z,54.35
2019-06-07T22:29:14.643Z,54.38
2019-06-07T22:31:44.528Z,54.34
2019-06-07T22:34:15.091Z,54.32
2019-06-07T22:36:45.020Z,54.41
2019-06-07T22:39:15.825Z,54.47
2019-06-07T22:41:45.643Z,54.78
2019-06-07T22:44:15.431Z,54.82
2019-06-07T22:46:46.083Z,54.92
2019-06-07T22:49:15.862Z,55.05
2019-06-07T22:51:45.546Z,54.97
2019-06-07T22:54:16.102Z,55.36
2019-06-07T22:56:47.639Z,55.38
2019-06-07T22:59:19.126Z,55.52
2019-06-07T23:01:48.889Z,55.55
2019-06-07T23:04:19.336Z,55.97
2019-06-07T23:06:49.166Z,56.02
2019-06-07T23:09:19.777Z,56.40
2019-06-07T23:11:49.605Z,56.55
2019-06-07T23:14:19.593Z,56.32
2019-06-07T23:16:55.425Z,56.34
2019-06-07T23:19:20.711Z,56.48
2019-06-07T23:21:50.484Z,56.31
2019-06-07T23:24:21.451Z,56.67
2019-06-07T23:26:51.372Z,56.89
2019-06-07T23:29:21.037Z,56.06
2019-06-07T23:31:50.756Z,56.02
2019-06-07T23:34:21.046Z,56.31
2019-06-07T23:36:50.880Z,56.13
2019-06-07T23:39:22.404Z,55.94
2019-06-07T23:41:52.001Z,55.54
2019-06-07T23:44:21.772Z,55.50
2019-06-07T23:46:51.488Z,55.59
2019-06-07T23:49:22.445Z,55.17
2019-06-07T23:51:52.350Z,55.11
2019-06-07T23:54:22.192Z,55.29
2019-06-07T23:56:51.916Z,55.29
2019-06-07T23:59:22.456Z,55.28
